createdAt,value
2019-06-01T00:00:33.113Z,1001.32
2019-06-01T00:01:33.093Z,1001.27
2019-06-01T00:02:33.109Z,1001.28
2019-06-01T00:03:33.075Z,1001.28
2019-06-01T00:04:33.065Z,1001.32
2019-06-01T00:05:33.047Z,1001.28
2019-06-01T00:06:33.036Z,1001.25
2019-06-01T00:07:33.024Z,1001.30
2019-06-01T00:08:33.042Z,1001.25
2019-06-01T00:09:33.002Z,1001.23
2019-06-01T00:10:32.992Z,1001.22
2019-06-01T00:11:32.979Z,1001.21
2019-06-01T00:12:32.967Z,1001.22
2019-06-01T00:13:32.960Z,1001.20
2019-06-01T00:14:32.970Z,1001.20
2019-06-01T00:15:32.934Z,1001.20
2019-06-01T00:16:32.925Z,1001.19
2019-06-01T00:17:32.914Z,1001.27
2019-06-01T00:18:32.900Z,1001.24
2019-06-01T00:19:32.889Z,1001.26
2019-06-01T00:20:32.894Z,1001.29
2019-06-01T00:21:32.869Z,1001.27
2019-06-01T00:22:32.857Z,1001.25
2019-06-01T00:23:32.844Z,1001.25
2019-06-01T00:24:32.836Z,1001.23
2019-06-01T00:25:32.821Z,1001.20
2019-06-01T00:26:32.828Z,1001.26
2019-06-01T00:27:32.805Z,1001.18
2019-06-01T00:28:32.804Z,1001.19
2019-06-01T00:29:32.774Z,1001.18
2019-06-01T00:30:32.767Z,1001.21
2019-06-01T00:31:32.754Z,1001.18
2019-06-01T00:32:32.765Z,1001.24
2019-06-01T00:33:32.737Z,1001.21
2019-06-01T00:34:32.718Z,1001.16
2019-06-01T00:35:32.705Z,1001.21
2019-06-01T00:36:32.696Z,1001.19
2019-06-01T00:37:32.688Z,1001.20
2019-06-01T00:38:32.694Z,1001.18
2019-06-01T00:39:32.720Z,1001.18
2019-06-01T00:40:32.647Z,1001.15
2019-06-01T00:41:32.634Z,1001.21
2019-06-01T00:42:32.631Z,1001.19
2019-06-01T00:43:32.617Z,1001.16
2019-06-01T00:44:32.616Z,1001.20
2019-06-01T00:45:32.592Z,1001.17
2019-06-01T00:46:32.576Z,1001.19
2019-06-01T00:47:32.568Z,1001.23
2019-06-01T00:48:32.559Z,1001.21
2019-06-01T00:49:32.542Z,1001.23
2019-06-01T00:50:32.548Z,1001.22
2019-06-01T00:51:32.536Z,1001.22
2019-06-01T00:52:32.511Z,1001.24
2019-06-01T00:53:32.507Z,1001.24
2019-06-01T00:54:32.490Z,1001.24
2019-06-01T00:55:32.488Z,1001.26
2019-06-01T00:56:32.479Z,1001.25
2019-06-01T00:57:32.455Z,1001.28
2019-06-01T00:58:32.442Z,1001.30
2019-06-01T00:59:32.450Z,1001.26
2019-06-01T01:00:43.113Z,1001.27
2019-06-01T01:01:33.443Z,1001.24
2019-06-01T01:02:32.401Z,1001.25
2019-06-01T01:03:32.386Z,1001.25
2019-06-01T01:04:32.384Z,1001.23
2019-06-01T01:05:32.378Z,1001.19
2019-06-01T01:06:32.352Z,1001.23
2019-06-01T01:07:32.360Z,1001.23
2019-06-01T01:08:32.328Z,1001.26
2019-06-01T01:09:32.316Z,1001.27
2019-06-01T01:10:32.305Z,1001.23
2019-06-01T01:11:32.298Z,1001.27
2019-06-01T01:12:32.286Z,1001.31
2019-06-01T01:13:32.291Z,1001.26
2019-06-01T01:14:32.259Z,1001.30
2019-06-01T01:15:32.249Z,1001.33
2019-06-01T01:16:32.239Z,1001.34
2019-06-01T01:17:32.231Z,1001.30
2019-06-01T01:18:32.216Z,1001.25
2019-06-01T01:19:32.223Z,1001.25
2019-06-01T01:20:32.200Z,1001.28
2019-06-01T01:21:32.196Z,1001.22
2019-06-01T01:22:32.168Z,1001.25
2019-06-01T01:23:32.157Z,1001.29
2019-06-01T01:24:32.147Z,1001.24
2019-06-01T01:25:32.155Z,1001.29
2019-06-01T01:26:32.124Z,1001.26
2019-06-01T01:27:32.114Z,1001.27
2019-06-01T01:28:32.130Z,1001.26
2019-06-01T01:29:32.087Z,1001.19
2019-06-01T01:30:32.079Z,1001.22
2019-06-01T01:31:32.087Z,1001.24
2019-06-01T01:32:32.055Z,1001.26
2019-06-01T01:33:32.046Z,1001.24
2019-06-01T01:34:32.037Z,1001.28
2019-06-01T01:35:32.025Z,1001.24
2019-06-01T01:36:32.005Z,1001.19
2019-06-01T01:37:32.011Z,1001.20
2019-06-01T01:38:31.992Z,1001.23
2019-06-01T01:39:31.972Z,1001.23
2019-06-01T01:40:31.960Z,1001.21
2019-06-01T01:41:31.955Z,1001.20
2019-06-01T01:42:31.955Z,1001.23
2019-06-01T01:43:31.946Z,1001.24
2019-06-01T01:44:31.919Z,1001.22
2019-06-01T01:45:31.913Z,1001.21
2019-06-01T01:46:31.894Z,1001.20
2019-06-01T01:47:31.876Z,1001.25
2019-06-01T01:48:31.868Z,1001.24
2019-06-01T01:49:31.874Z,1001.25
2019-06-01T01:50:31.853Z,1001.25
2019-06-01T01:51:31.834Z,1001.20
2019-06-01T01:52:31.822Z,1001.23
2019-06-01T01:53:31.808Z,1001.22
2019-06-01T01:54:31.799Z,1001.25
2019-06-01T01:55:31.835Z,1001.24
2019-06-01T01:56:31.793Z,1001.22
2019-06-01T01:57:31.761Z,1001.25
2019-06-01T01:58:31.751Z,1001.25
2019-06-01T01:59:31.739Z,1001.23
2019-06-01T02:00:31.731Z,1001.20
2019-06-01T02:01:31.739Z,1001.20
2019-06-01T02:02:31.708Z,1001.22
2019-06-01T02:03:31.698Z,1001.25
2019-06-01T02:04:31.687Z,1001.21
2019-06-01T02:05:31.677Z,1001.23
2019-06-01T02:06:31.661Z,1001.19
2019-06-01T02:07:31.673Z,1001.26
2019-06-01T02:08:31.644Z,1001.26
2019-06-01T02:09:31.638Z,1001.20
2019-06-01T02:10:31.618Z,1001.18
2019-06-01T02:11:31.608Z,1001.16
2019-06-01T02:12:31.595Z,1001.20
2019-06-01T02:13:31.606Z,1001.17
2019-06-01T02:14:31.575Z,1001.21
2019-06-01T02:15:31.563Z,1001.24
2019-06-01T02:16:31.548Z,1001.25
2019-06-01T02:17:31.536Z,1001.14
2019-06-01T02:18:31.536Z,1001.11
2019-06-01T02:19:31.539Z,1001.15
2019-06-01T02:20:31.507Z,1001.11
2019-06-01T02:21:31.493Z,1001.07
2019-06-01T02:22:31.485Z,1001.13
2019-06-01T02:23:31.472Z,1001.10
2019-06-01T02:24:31.470Z,1001.09
2019-06-01T02:25:31.462Z,1001.06
2019-06-01T02:26:31.437Z,1001.07
2019-06-01T02:27:31.423Z,1001.07
2019-06-01T02:28:31.411Z,1001.09
2019-06-01T02:29:31.397Z,1001.07
2019-06-01T02:30:31.391Z,1001.05
2019-06-01T02:31:41.559Z,1001.11
2019-06-01T02:32:32.365Z,1001.10
2019-06-01T02:33:31.377Z,1001.12
2019-06-01T02:34:31.346Z,1001.12
2019-06-01T02:35:31.337Z,1001.06
2019-06-01T02:36:31.329Z,1001.16
2019-06-01T02:37:31.330Z,1001.12
2019-06-01T02:38:31.319Z,1001.07
2019-06-01T02:39:31.292Z,1001.13
2019-06-01T02:40:31.274Z,1001.11
2019-06-01T02:41:31.261Z,1001.08
2019-06-01T02:42:31.263Z,1001.10
2019-06-01T02:43:31.269Z,1001.09
2019-06-01T02:44:31.233Z,1001.04
2019-06-01T02:45:31.225Z,1001.08
2019-06-01T02:46:35.340Z,1001.14
2019-06-01T02:47:31.197Z,1001.08
2019-06-01T02:48:31.186Z,1001.11
2019-06-01T02:49:31.191Z,1001.13
2019-06-01T02:50:31.160Z,1001.10
2019-06-01T02:51:31.150Z,1001.11
2019-06-01T02:52:31.148Z,1001.17
2019-06-01T02:53:31.128Z,1001.14
2019-06-01T02:54:31.117Z,1001.15
2019-06-01T02:55:31.121Z,1001.13
2019-06-01T02:56:31.092Z,1001.13
2019-06-01T02:57:31.083Z,1001.17
2019-06-01T02:58:31.069Z,1001.17
2019-06-01T02:59:31.061Z,1001.12
2019-06-01T03:00:31.048Z,1001.10
2019-06-01T03:01:31.062Z,1001.15
2019-06-01T03:02:31.041Z,1001.13
2019-06-01T03:03:31.021Z,1001.18
2019-06-01T03:04:31.006Z,1001.13
2019-06-01T03:05:30.998Z,1001.10
2019-06-01T03:06:30.985Z,1001.18
2019-06-01T03:07:31.005Z,1001.13
2019-06-01T03:08:30.965Z,1001.09
2019-06-01T03:09:30.952Z,1001.14
2019-06-01T03:10:30.937Z,1001.13
2019-06-01T03:11:30.967Z,1001.12
2019-06-01T03:12:30.923Z,1001.15
2019-06-01T03:13:30.938Z,1001.08
2019-06-01T03:14:30.894Z,1001.13
2019-06-01T03:15:30.890Z,1001.10
2019-06-01T03:16:30.880Z,1001.09
2019-06-01T03:17:30.862Z,1001.12
2019-06-01T03:18:30.856Z,1001.13
2019-06-01T03:19:30.874Z,1001.13
2019-06-01T03:20:30.834Z,1001.13
2019-06-01T03:21:30.818Z,1001.11
2019-06-01T03:22:30.810Z,1001.12
2019-06-01T03:23:30.807Z,1001.08
2019-06-01T03:24:30.786Z,1001.04
2019-06-01T03:25:30.792Z,1001.09
2019-06-01T03:26:30.770Z,1001.07
2019-06-01T03:27:30.754Z,1001.00
2019-06-01T03:28:30.743Z,1001.03
2019-06-01T03:29:30.733Z,1001.03
2019-06-01T03:30:30.730Z,1001.05
2019-06-01T03:31:30.735Z,1001.03
2019-06-01T03:32:36.769Z,1001.05
2019-06-01T03:33:31.692Z,1001.06
2019-06-01T03:34:30.682Z,1001.10
2019-06-01T03:35:30.677Z,1001.05
2019-06-01T03:36:30.676Z,1001.07
2019-06-01T03:37:30.668Z,1001.09
2019-06-01T03:38:30.642Z,1001.03
2019-06-01T03:39:30.626Z,1001.04
2019-06-01T03:40:30.613Z,1001.03
2019-06-01T03:41:30.602Z,1001.06
2019-06-01T03:42:30.593Z,1001.03
2019-06-01T03:43:30.597Z,1001.03
2019-06-01T03:44:30.569Z,1001.02
2019-06-01T03:45:30.560Z,1000.95
2019-06-01T03:46:30.556Z,1000.98
2019-06-01T03:47:30.535Z,1000.95
2019-06-01T03:48:30.526Z,1000.96
2019-06-01T03:49:30.535Z,1000.97
2019-06-01T03:50:30.508Z,1000.97
2019-06-01T03:51:30.493Z,1000.98
2019-06-01T03:52:30.481Z,1000.96
2019-06-01T03:53:30.643Z,1001.02
2019-06-01T03:54:30.460Z,1000.92
2019-06-01T03:55:30.466Z,1000.99
2019-06-01T03:56:30.434Z,1001.01
2019-06-01T03:57:30.423Z,1001.04
2019-06-01T03:58:30.410Z,1001.03
2019-06-01T03:59:30.408Z,1001.04
2019-06-01T04:00:30.395Z,1001.02
2019-06-01T04:01:30.404Z,1001.07
2019-06-01T04:02:33.113Z,1001.01
2019-06-01T04:03:30.354Z,1001.05
2019-06-01T04:04:30.344Z,1001.04
2019-06-01T04:05:30.336Z,1001.07
2019-06-01T04:06:30.320Z,1001.06
2019-06-01T04:07:30.325Z,1001.07
2019-06-01T04:08:30.341Z,1001.11
2019-06-01T04:09:30.287Z,1001.12
2019-06-01T04:10:30.279Z,1001.14
2019-06-01T04:11:30.292Z,1001.18
2019-06-01T04:12:30.252Z,1001.20
2019-06-01T04:13:30.258Z,1001.28
2019-06-01T04:14:30.233Z,1001.23
2019-06-01T04:15:30.218Z,1001.25
2019-06-01T04:16:30.210Z,1001.24
2019-06-01T04:17:32.851Z,1001.26
2019-06-01T04:18:30.183Z,1001.32
2019-06-01T04:19:30.187Z,1001.34
2019-06-01T04:20:30.158Z,1001.34
2019-06-01T04:21:30.147Z,1001.35
2019-06-01T04:22:30.136Z,1001.42
2019-06-01T04:23:30.132Z,1001.44
2019-06-01T04:24:30.115Z,1001.50
2019-06-01T04:25:30.126Z,1001.58
2019-06-01T04:26:30.090Z,1001.68
2019-06-01T04:27:30.084Z,1001.78
2019-06-01T04:28:30.088Z,1001.77
2019-06-01T04:29:30.062Z,1001.79
2019-06-01T04:30:30.047Z,1001.78
2019-06-01T04:31:30.046Z,1001.70
2019-06-01T04:32:30.020Z,1001.67
2019-06-01T04:33:30.013Z,1001.85
2019-06-01T04:34:30.008Z,1001.87
2019-06-01T04:35:29.988Z,1001.88
2019-06-01T04:36:29.971Z,1001.86
2019-06-01T04:37:29.985Z,1001.83
2019-06-01T04:38:29.947Z,1001.78
2019-06-01T04:39:29.937Z,1001.77
2019-06-01T04:40:29.929Z,1001.79
2019-06-01T04:41:29.912Z,1001.83
2019-06-01T04:42:29.899Z,1001.80
2019-06-01T04:43:29.910Z,1001.73
2019-06-01T04:44:29.884Z,1001.71
2019-06-01T04:45:29.866Z,1001.68
2019-06-01T04:46:29.857Z,1001.69
2019-06-01T04:47:29.845Z,1001.66
2019-06-01T04:48:29.838Z,1001.59
2019-06-01T04:49:29.839Z,1001.63
2019-06-01T04:50:29.812Z,1001.69
2019-06-01T04:51:29.802Z,1001.74
2019-06-01T04:52:29.792Z,1001.79
2019-06-01T04:53:29.786Z,1001.78
2019-06-01T04:54:29.765Z,1001.66
2019-06-01T04:55:29.770Z,1001.69
2019-06-01T04:56:29.740Z,1001.73
2019-06-01T04:57:29.735Z,1001.72
2019-06-01T04:58:29.726Z,1001.74
2019-06-01T04:59:29.711Z,1001.76
2019-06-01T05:00:29.693Z,1001.74
2019-06-01T05:01:29.723Z,1001.71
2019-06-01T05:02:29.675Z,1001.67
2019-06-01T05:03:29.660Z,1001.60
2019-06-01T05:04:29.651Z,1001.60
2019-06-01T05:05:29.636Z,1001.59
2019-06-01T05:06:29.626Z,1001.62
2019-06-01T05:07:29.629Z,1001.67
2019-06-01T05:08:29.617Z,1001.67
2019-06-01T05:09:29.592Z,1001.78
2019-06-01T05:10:29.581Z,1001.75
2019-06-01T05:11:29.570Z,1001.74
2019-06-01T05:12:29.566Z,1001.80
2019-06-01T05:13:29.572Z,1001.87
2019-06-01T05:14:29.542Z,1001.93
2019-06-01T05:15:29.523Z,1002.00
2019-06-01T05:16:29.512Z,1002.03
2019-06-01T05:17:29.506Z,1001.98
2019-06-01T05:18:29.493Z,1001.96
2019-06-01T05:19:29.495Z,1002.01
2019-06-01T05:20:29.470Z,1002.04
2019-06-01T05:21:29.460Z,1002.08
2019-06-01T05:22:29.447Z,1002.11
2019-06-01T05:23:29.440Z,1002.06
2019-06-01T05:24:29.425Z,1002.12
2019-06-01T05:25:29.447Z,1002.19
2019-06-01T05:26:29.404Z,1002.14
2019-06-01T05:27:29.392Z,1002.22
2019-06-01T05:28:29.382Z,1002.30
2019-06-01T05:29:29.368Z,1002.28
2019-06-01T05:30:29.357Z,1002.34
2019-06-01T05:31:29.375Z,1002.34
2019-06-01T05:32:29.337Z,1002.45
2019-06-01T05:33:37.438Z,1002.44
2019-06-01T05:34:30.311Z,1002.33
2019-06-01T05:35:29.298Z,1002.24
2019-06-01T05:36:29.290Z,1002.29
2019-06-01T05:37:29.296Z,1002.34
2019-06-01T05:38:29.265Z,1002.36
2019-06-01T05:39:29.256Z,1002.36
2019-06-01T05:40:29.248Z,1002.34
2019-06-01T05:41:29.232Z,1002.28
2019-06-01T05:42:29.223Z,1002.32
2019-06-01T05:43:29.234Z,1002.28
2019-06-01T05:44:29.199Z,1002.22
2019-06-01T05:45:29.191Z,1002.16
2019-06-01T05:46:29.201Z,1002.15
2019-06-01T05:47:29.168Z,1002.06
2019-06-01T05:48:30.786Z,1002.02
2019-06-01T05:49:29.162Z,1002.04
2019-06-01T05:50:29.140Z,1002.11
2019-06-01T05:51:29.123Z,1002.08
2019-06-01T05:52:29.123Z,1001.96
2019-06-01T05:53:29.098Z,1001.95
2019-06-01T05:54:29.100Z,1002.02
2019-06-01T05:55:29.102Z,1002.17
2019-06-01T05:56:29.067Z,1002.12
2019-06-01T05:57:29.062Z,1002.08
2019-06-01T05:58:29.448Z,1002.21
2019-06-01T05:59:29.032Z,1002.21
2019-06-01T06:00:29.029Z,1002.37
2019-06-01T06:01:29.024Z,1002.41
2019-06-01T06:02:28.997Z,1002.47
2019-06-01T06:03:40.076Z,1002.52
2019-06-01T06:04:29.977Z,1002.49
2019-06-01T06:05:28.971Z,1002.63
2019-06-01T06:06:28.954Z,1002.70
2019-06-01T06:07:28.958Z,1002.72
2019-06-01T06:08:28.934Z,1002.68
2019-06-01T06:09:28.920Z,1002.58
2019-06-01T06:10:28.912Z,1002.71
2019-06-01T06:11:28.903Z,1002.69
2019-06-01T06:12:28.893Z,1002.68
2019-06-01T06:13:28.897Z,1002.72
2019-06-01T06:14:28.870Z,1002.64
2019-06-01T06:15:28.855Z,1002.65
2019-06-01T06:16:28.844Z,1002.66
2019-06-01T06:17:28.832Z,1002.67
2019-06-01T06:18:28.825Z,1002.66
2019-06-01T06:19:28.830Z,1002.70
2019-06-01T06:20:28.803Z,1002.60
2019-06-01T06:21:28.788Z,1002.62
2019-06-01T06:22:28.783Z,1002.60
2019-06-01T06:23:28.780Z,1002.58
2019-06-01T06:24:28.761Z,1002.52
2019-06-01T06:25:31.047Z,1002.55
2019-06-01T06:26:28.743Z,1002.55
2019-06-01T06:27:28.728Z,1002.52
2019-06-01T06:28:28.717Z,1002.57
2019-06-01T06:29:28.704Z,1002.51
2019-06-01T06:30:28.701Z,1002.55
2019-06-01T06:31:28.705Z,1002.58
2019-06-01T06:32:28.675Z,1002.46
2019-06-01T06:33:28.672Z,1002.62
2019-06-01T06:34:28.654Z,1002.51
2019-06-01T06:35:28.639Z,1002.51
2019-06-01T06:36:28.630Z,1002.28
2019-06-01T06:37:28.656Z,1002.62
2019-06-01T06:38:28.621Z,1002.61
2019-06-01T06:39:28.600Z,1002.64
2019-06-01T06:40:28.592Z,1002.72
2019-06-01T06:41:28.574Z,1002.75
2019-06-01T06:42:28.564Z,1002.74
2019-06-01T06:43:32.843Z,1002.70
2019-06-01T06:44:28.554Z,1002.73
2019-06-01T06:45:28.531Z,1002.70
2019-06-01T06:46:28.525Z,1002.73
2019-06-01T06:47:28.520Z,1002.73
2019-06-01T06:48:28.504Z,1002.75
2019-06-01T06:49:28.515Z,1002.78
2019-06-01T06:50:28.482Z,1002.76
2019-06-01T06:51:28.472Z,1002.68
2019-06-01T06:52:28.465Z,1002.58
2019-06-01T06:53:34.979Z,1002.56
2019-06-01T06:54:29.465Z,1002.53
2019-06-01T06:55:28.424Z,1002.55
2019-06-01T06:56:28.429Z,1002.54
2019-06-01T06:57:28.407Z,1002.53
2019-06-01T06:58:28.395Z,1002.53
2019-06-01T06:59:28.393Z,1002.21
2019-06-01T07:00:28.401Z,1002.17
2019-06-01T07:01:28.370Z,1002.16
2019-06-01T07:02:28.363Z,1002.25
2019-06-01T07:03:28.343Z,1002.21
2019-06-01T07:04:28.338Z,1002.26
2019-06-01T07:05:31.321Z,1002.36
2019-06-01T07:06:28.345Z,1002.37
2019-06-01T07:07:28.302Z,1002.38
2019-06-01T07:08:28.295Z,1002.39
2019-06-01T07:09:28.429Z,1002.44
2019-06-01T07:10:28.363Z,1002.51
2019-06-01T07:11:29.397Z,1002.54
2019-06-01T07:12:28.270Z,1002.57
2019-06-01T07:13:28.249Z,1002.55
2019-06-01T07:14:28.232Z,1002.52
2019-06-01T07:15:28.233Z,1002.61
2019-06-01T07:16:28.215Z,1002.66
2019-06-01T07:17:28.211Z,1002.61
2019-06-01T07:18:28.205Z,1002.66
2019-06-01T07:19:28.181Z,1002.66
2019-06-01T07:20:28.188Z,1002.67
2019-06-01T07:21:28.158Z,1002.68
2019-06-01T07:22:28.169Z,1002.71
2019-06-01T07:23:28.140Z,1002.72
2019-06-01T07:24:28.222Z,1002.72
2019-06-01T07:25:28.853Z,1002.62
2019-06-01T07:26:28.247Z,1002.73
2019-06-01T07:27:28.366Z,1002.74
2019-06-01T07:28:28.398Z,1002.76
2019-06-01T07:29:28.409Z,1002.77
2019-06-01T07:30:28.467Z,1002.79
2019-06-01T07:31:28.407Z,1002.75
2019-06-01T07:32:28.622Z,1002.82
2019-06-01T07:33:28.564Z,1002.89
2019-06-01T07:34:37.845Z,1002.90
2019-06-01T07:35:29.030Z,1002.90
2019-06-01T07:36:28.704Z,1002.96
2019-06-01T07:37:28.584Z,1002.93
2019-06-01T07:38:28.954Z,1002.95
2019-06-01T07:39:29.060Z,1002.97
2019-06-01T07:40:28.788Z,1002.94
2019-06-01T07:41:28.836Z,1002.89
2019-06-01T07:42:29.313Z,1002.88
2019-06-01T07:43:29.003Z,1002.86
2019-06-01T07:44:29.257Z,1002.85
2019-06-01T07:45:29.373Z,1002.86
2019-06-01T07:46:28.997Z,1002.87
2019-06-01T07:47:29.081Z,1002.85
2019-06-01T07:48:29.093Z,1002.87
2019-06-01T07:49:29.088Z,1002.89
2019-06-01T07:50:28.106Z,1002.91
2019-06-01T07:51:27.856Z,1002.96
2019-06-01T07:52:28.287Z,1002.95
2019-06-01T07:53:27.855Z,1002.96
2019-06-01T07:54:28.493Z,1002.96
2019-06-01T07:55:27.817Z,1002.95
2019-06-01T07:56:28.668Z,1002.91
2019-06-01T07:57:27.809Z,1002.88
2019-06-01T07:58:28.790Z,1002.89
2019-06-01T07:59:28.330Z,1002.82
2019-06-01T08:00:28.978Z,1002.83
2019-06-01T08:01:29.084Z,1002.83
2019-06-01T08:02:29.554Z,1002.76
2019-06-01T08:03:31.143Z,1002.81
2019-06-01T08:04:31.782Z,1002.81
2019-06-01T08:05:28.717Z,1002.75
2019-06-01T08:06:28.830Z,1002.80
2019-06-01T08:07:27.833Z,1002.80
2019-06-01T08:08:27.688Z,1002.82
2019-06-01T08:09:27.895Z,1002.86
2019-06-01T08:10:27.775Z,1002.86
2019-06-01T08:11:31.090Z,1002.86
2019-06-01T08:12:29.700Z,1002.87
2019-06-01T08:13:31.517Z,1002.88
2019-06-01T08:14:28.690Z,1002.86
2019-06-01T08:15:28.272Z,1002.92
2019-06-01T08:16:27.943Z,1002.86
2019-06-01T08:17:28.103Z,1002.88
2019-06-01T08:18:28.211Z,1002.89
2019-06-01T08:19:28.074Z,1002.85
2019-06-01T08:20:28.695Z,1002.82
2019-06-01T08:21:28.101Z,1002.78
2019-06-01T08:22:28.010Z,1002.80
2019-06-01T08:23:28.357Z,1002.75
2019-06-01T08:24:28.309Z,1002.76
2019-06-01T08:25:28.591Z,1002.70
2019-06-01T08:26:28.545Z,1002.75
2019-06-01T08:27:28.476Z,1002.70
2019-06-01T08:28:29.050Z,1002.69
2019-06-01T08:29:28.730Z,1002.66
2019-06-01T08:30:28.660Z,1002.61
2019-06-01T08:31:28.600Z,1002.65
2019-06-01T08:32:28.613Z,1002.68
2019-06-01T08:33:30.238Z,1002.60
2019-06-01T08:34:27.461Z,1002.63
2019-06-01T08:35:27.435Z,1002.57
2019-06-01T08:36:27.438Z,1002.62
2019-06-01T08:37:27.413Z,1002.52
2019-06-01T08:38:27.543Z,1002.61
2019-06-01T08:39:27.482Z,1002.59
2019-06-01T08:40:27.450Z,1002.57
2019-06-01T08:41:27.637Z,1002.64
2019-06-01T08:42:27.458Z,1002.66
2019-06-01T08:43:27.630Z,1002.66
2019-06-01T08:44:27.763Z,1002.83
2019-06-01T08:45:27.688Z,1003.03
2019-06-01T08:46:27.694Z,1003.21
2019-06-01T08:47:27.827Z,1003.22
2019-06-01T08:48:27.738Z,1003.20
2019-06-01T08:49:28.033Z,1003.10
2019-06-01T08:50:27.741Z,1002.99
2019-06-01T08:51:28.205Z,1002.91
2019-06-01T08:52:28.077Z,1002.85
2019-06-01T08:53:27.874Z,1002.77
2019-06-01T08:54:28.115Z,1002.69
2019-06-01T08:55:28.045Z,1002.64
2019-06-01T08:56:28.241Z,1002.49
2019-06-01T08:57:28.279Z,1002.44
2019-06-01T08:58:28.198Z,1002.39
2019-06-01T08:59:28.394Z,1002.41
2019-06-01T09:00:28.400Z,1002.38
2019-06-01T09:01:28.540Z,1002.40
2019-06-01T09:02:28.966Z,1002.33
2019-06-01T09:03:27.768Z,1002.30
2019-06-01T09:04:27.218Z,1002.32
2019-06-01T09:05:28.916Z,1002.35
2019-06-01T09:06:27.170Z,1002.36
2019-06-01T09:07:27.157Z,1002.37
2019-06-01T09:08:27.203Z,1002.37
2019-06-01T09:09:27.157Z,1002.38
2019-06-01T09:10:27.490Z,1002.36
2019-06-01T09:11:27.128Z,1002.40
2019-06-01T09:12:27.302Z,1002.41
2019-06-01T09:13:27.246Z,1002.40
2019-06-01T09:14:27.266Z,1002.37
2019-06-01T09:15:27.591Z,1002.34
2019-06-01T09:16:27.770Z,1002.37
2019-06-01T09:17:27.229Z,1002.39
2019-06-01T09:18:27.577Z,1002.40
2019-06-01T09:19:27.347Z,1002.35
2019-06-01T09:20:27.443Z,1002.36
2019-06-01T09:21:27.486Z,1002.34
2019-06-01T09:22:27.533Z,1002.30
2019-06-01T09:23:27.621Z,1002.32
2019-06-01T09:24:27.678Z,1002.27
2019-06-01T09:25:27.510Z,1002.29
2019-06-01T09:26:27.771Z,1002.27
2019-06-01T09:27:27.724Z,1002.25
2019-06-01T09:28:27.855Z,1002.30
2019-06-01T09:29:27.824Z,1002.28
2019-06-01T09:30:27.965Z,1002.24
2019-06-01T09:31:28.349Z,1002.18
2019-06-01T09:32:27.905Z,1002.19
2019-06-01T09:33:28.123Z,1002.20
2019-06-01T09:34:28.323Z,1002.19
2019-06-01T09:35:44.710Z,1002.21
2019-06-01T09:36:28.344Z,1002.21
2019-06-01T09:37:26.924Z,1002.17
2019-06-01T09:38:27.619Z,1002.12
2019-06-01T09:39:26.898Z,1002.13
2019-06-01T09:40:28.256Z,1002.11
2019-06-01T09:41:26.916Z,1002.09
2019-06-01T09:42:26.875Z,1002.09
2019-06-01T09:43:26.864Z,1002.09
2019-06-01T09:44:26.959Z,1002.08
2019-06-01T09:45:27.815Z,1002.07
2019-06-01T09:46:26.993Z,1002.07
2019-06-01T09:47:27.126Z,1002.03
2019-06-01T09:48:27.081Z,1002.07
2019-06-01T09:49:27.258Z,1002.04
2019-06-01T09:50:27.236Z,1002.03
2019-06-01T09:51:27.344Z,1002.00
2019-06-01T09:52:27.384Z,1002.02
2019-06-01T09:53:27.489Z,1002.02
2019-06-01T09:54:27.346Z,1002.02
2019-06-01T09:55:27.510Z,1002.02
2019-06-01T09:56:29.028Z,1002.04
2019-06-01T09:57:27.670Z,1001.98
2019-06-01T09:58:28.059Z,1001.96
2019-06-01T09:59:27.752Z,1001.98
2019-06-01T10:00:26.771Z,1002.01
2019-06-01T10:01:28.021Z,1001.98
2019-06-01T10:02:28.044Z,1002.01
2019-06-01T10:03:28.126Z,1001.99
2019-06-01T10:04:28.174Z,1002.02
2019-06-01T10:05:26.703Z,1002.04
2019-06-01T10:06:26.686Z,1002.03
2019-06-01T10:07:26.688Z,1002.10
2019-06-01T10:08:26.665Z,1002.10
2019-06-01T10:09:26.704Z,1002.08
2019-06-01T10:10:26.672Z,1002.06
2019-06-01T10:11:26.652Z,1002.06
2019-06-01T10:12:26.631Z,1002.05
2019-06-01T10:13:26.625Z,1002.05
2019-06-01T10:14:26.673Z,1002.01
2019-06-01T10:15:26.640Z,1002.02
2019-06-01T10:16:26.640Z,1002.07
2019-06-01T10:17:26.594Z,1002.05
2019-06-01T10:18:27.209Z,1002.02
2019-06-01T10:19:26.592Z,1002.02
2019-06-01T10:20:26.578Z,1002.04
2019-06-01T10:21:26.581Z,1002.10
2019-06-01T10:22:26.599Z,1002.06
2019-06-01T10:23:26.569Z,1001.97
2019-06-01T10:24:26.560Z,1001.97
2019-06-01T10:25:26.533Z,1001.92
2019-06-01T10:26:26.544Z,1001.91
2019-06-01T10:27:26.518Z,1001.93
2019-06-01T10:28:26.532Z,1001.95
2019-06-01T10:29:26.530Z,1002.01
2019-06-01T10:30:26.492Z,1002.04
2019-06-01T10:31:26.489Z,1002.06
2019-06-01T10:32:26.492Z,1002.06
2019-06-01T10:33:26.471Z,1002.01
2019-06-01T10:34:26.477Z,1002.07
2019-06-01T10:35:26.469Z,1002.03
2019-06-01T10:36:26.456Z,1002.03
2019-06-01T10:37:26.440Z,1002.02
2019-06-01T10:38:26.435Z,1002.02
2019-06-01T10:39:26.454Z,1002.03
2019-06-01T10:40:26.448Z,1002.03
2019-06-01T10:41:26.406Z,1002.05
2019-06-01T10:42:26.436Z,1002.04
2019-06-01T10:43:26.437Z,1002.13
2019-06-01T10:44:26.391Z,1002.13
2019-06-01T10:45:26.410Z,1002.15
2019-06-01T10:46:26.382Z,1002.07
2019-06-01T10:47:26.376Z,1002.12
2019-06-01T10:48:26.351Z,1002.10
2019-06-01T10:49:26.367Z,1002.06
2019-06-01T10:50:26.333Z,1002.04
2019-06-01T10:51:26.333Z,1001.89
2019-06-01T10:52:26.344Z,1001.87
2019-06-01T10:53:26.319Z,1001.91
2019-06-01T10:54:26.300Z,1001.76
2019-06-01T10:55:26.421Z,1001.88
2019-06-01T10:56:26.289Z,1001.92
2019-06-01T10:57:26.280Z,1001.80
2019-06-01T10:58:26.292Z,1001.69
2019-06-01T10:59:26.287Z,1001.82
2019-06-01T11:00:37.848Z,1001.81
2019-06-01T11:01:27.247Z,1001.61
2019-06-01T11:02:26.239Z,1001.78
2019-06-01T11:03:26.230Z,1001.69
2019-06-01T11:04:26.262Z,1001.75
2019-06-01T11:05:26.253Z,1001.81
2019-06-01T11:06:36.608Z,1001.75
2019-06-01T11:07:27.194Z,1001.80
2019-06-01T11:08:26.189Z,1001.80
2019-06-01T11:09:26.183Z,1001.84
2019-06-01T11:10:26.191Z,1001.77
2019-06-01T11:11:26.161Z,1001.86
2019-06-01T11:12:26.179Z,1001.83
2019-06-01T11:13:26.161Z,1001.67
2019-06-01T11:14:26.152Z,1001.71
2019-06-01T11:15:26.127Z,1001.63
2019-06-01T11:16:26.140Z,1001.60
2019-06-01T11:17:26.120Z,1001.55
2019-06-01T11:18:26.101Z,1001.58
2019-06-01T11:19:26.130Z,1001.55
2019-06-01T11:20:26.087Z,1001.62
2019-06-01T11:21:26.074Z,1001.54
2019-06-01T11:22:26.100Z,1001.53
2019-06-01T11:23:26.056Z,1001.53
2019-06-01T11:24:26.067Z,1001.54
2019-06-01T11:25:26.038Z,1001.57
2019-06-01T11:26:26.038Z,1001.56
2019-06-01T11:27:26.024Z,1001.57
2019-06-01T11:28:26.031Z,1001.52
2019-06-01T11:29:25.996Z,1001.55
2019-06-01T11:30:26.000Z,1001.55
2019-06-01T11:31:25.987Z,1001.54
2019-06-01T11:32:25.977Z,1001.50
2019-06-01T11:33:25.961Z,1001.48
2019-06-01T11:34:25.975Z,1001.42
2019-06-01T11:35:25.978Z,1001.37
2019-06-01T11:36:25.940Z,1001.34
2019-06-01T11:37:25.922Z,1001.29
2019-06-01T11:38:25.920Z,1001.21
2019-06-01T11:39:25.933Z,1001.20
2019-06-01T11:40:25.922Z,1001.22
2019-06-01T11:41:25.891Z,1001.19
2019-06-01T11:42:25.880Z,1001.20
2019-06-01T11:43:25.873Z,1001.21
2019-06-01T11:44:25.867Z,1001.25
2019-06-01T11:45:25.887Z,1001.27
2019-06-01T11:46:25.885Z,1001.27
2019-06-01T11:47:25.846Z,1001.28
2019-06-01T11:48:25.839Z,1001.27
2019-06-01T11:49:25.821Z,1001.20
2019-06-01T11:50:25.818Z,1001.23
2019-06-01T11:51:25.804Z,1001.06
2019-06-01T11:52:25.810Z,1000.66
2019-06-01T11:53:25.794Z,1000.27
2019-06-01T11:54:25.775Z,1000.23
2019-06-01T11:55:25.766Z,1000.26
2019-06-01T11:56:25.758Z,1000.23
2019-06-01T11:57:25.750Z,1000.21
2019-06-01T11:58:25.762Z,1000.22
2019-06-01T11:59:25.728Z,1000.16
2019-06-01T12:00:25.718Z,1000.12
2019-06-01T12:01:25.721Z,1000.15
2019-06-01T12:02:25.699Z,1000.19
2019-06-01T12:03:25.692Z,1000.11
2019-06-01T12:04:25.707Z,1000.15
2019-06-01T12:05:25.691Z,1000.12